Time;durP1;ratioP1;P1;durP2;ratioP2;P2;SDS_P1;SDS_P2;PMS_P1;PMS_P2;Temp;Humidity;BMP_temperature;BMP_pressure;BME280_temperature;BME280_humidity;BME280_pressure;Samples;Min_cycle;Max_cycle;Signal;HPM_P1;HPM_P2
2021/10/17 00:02:22;;;;;;;;;;;10.20;99.90;;;;;;4976207;28;20270;-71
2021/10/17 00:04:48;;;;;;;;;;;10.10;99.90;;;;;;4977575;28;19913;-74
2021/10/17 00:07:14;;;;;;;;;;;10.00;99.90;;;;;;4977496;28;19913;-73
2021/10/17 00:09:40;;;;;;;;;;;10.00;99.90;;;;;;4978039;28;19949;-73
2021/10/17 00:12:06;;;;;;;;;;;10.10;99.90;;;;;;4977729;28;19907;-71
2021/10/17 00:14:32;;;;;;;;;;;10.10;99.90;;;;;;4977428;28;19906;-71
2021/10/17 00:16:57;;;;;;;;;;;10.10;99.90;;;;;;4977621;28;19961;-73
2021/10/17 00:19:23;;;;;;;;;;;10.20;99.90;;;;;;4977214;28;20425;-71
2021/10/17 00:21:48;;;;;;;;;;;10.40;99.90;;;;;;4977143;28;20381;-72
2021/10/17 00:24:14;;;;;;;;;;;10.30;99.90;;;;;;4977167;28;19907;-74
2021/10/17 00:26:39;;;;;;;;;;;10.40;99.90;;;;;;4976926;28;19921;-74
2021/10/17 00:29:05;;;;;;;;;;;10.40;99.90;;;;;;4977126;28;19910;-74
2021/10/17 00:31:31;;;;;;;;;;;10.40;99.90;;;;;;4977610;28;19906;-74
2021/10/17 00:33:56;;;;;;;;;;;10.40;99.90;;;;;;4977280;28;19913;-71
2021/10/17 00:36:22;;;;;;;;;;;10.40;99.90;;;;;;4976981;28;19917;-71
2021/10/17 00:38:48;;;;;;;;;;;10.50;99.90;;;;;;4977424;28;19914;-72
2021/10/17 00:41:14;;;;;;;;;;;10.50;99.90;;;;;;4976896;28;20330;-74
2021/10/17 00:43:39;;;;;;;;;;;10.60;99.90;;;;;;4977110;28;20004;-70
2021/10/17 00:46:13;;;;;;;;;;;10.70;99.90;;;;;;4976774;28;19950;-72
2021/10/17 00:48:39;;;;;;;;;;;10.60;99.90;;;;;;4977348;28;19961;-71
2021/10/17 00:51:04;;;;;;;;;;;10.70;99.90;;;;;;4976935;28;19914;-70
2021/10/17 00:53:30;;;;;;;;;;;10.60;99.90;;;;;;4975429;28;20290;-72
2021/10/17 00:55:55;;;;;;;;;;;10.40;99.90;;;;;;4976813;28;19913;-74
2021/10/17 00:58:21;;;;;;;;;;;10.30;99.90;;;;;;4976481;28;19910;-76
2021/10/17 01:00:47;;;;;;;;;;;10.40;99.90;;;;;;4976526;28;19906;-71
2021/10/17 01:03:12;;;;;;;;;;;10.40;99.90;;;;;;4976759;28;19959;-72
2021/10/17 01:05:38;;;;;;;;;;;10.30;99.90;;;;;;4976390;28;20367;-76
2021/10/17 01:08:03;;;;;;;;;;;10.40;99.90;;;;;;4976424;28;19949;-75
2021/10/17 01:10:29;;;;;;;;;;;10.30;99.90;;;;;;4976327;28;20044;-73
2021/10/17 01:12:54;;;;;;;;;;;10.00;99.90;;;;;;4975830;28;19997;-73
2021/10/17 01:15:20;;;;;;;;;;;10.10;99.90;;;;;;4976509;28;19910;-73
2021/10/17 01:17:45;;;;;;;;;;;10.00;99.90;;;;;;4976173;28;20260;-71
2021/10/17 01:20:11;;;;;;;;;;;10.20;99.90;;;;;;4976094;28;19961;-72
2021/10/17 01:22:37;;;;;;;;;;;10.20;99.90;;;;;;4976044;28;19997;-71
2021/10/17 01:25:03;;;;;;;;;;;10.10;99.90;;;;;;4975839;28;20355;-71
2021/10/17 01:27:29;;;;;;;;;;;10.00;99.90;;;;;;4976593;28;19914;-71
2021/10/17 01:29:54;;;;;;;;;;;9.90;99.90;;;;;;4975959;28;20404;-74
2021/10/17 01:32:20;;;;;;;;;;;10.00;99.90;;;;;;4975933;28;19906;-74
2021/10/17 01:34:45;;;;;;;;;;;10.00;99.90;;;;;;4975860;28;19906;-75
2021/10/17 01:37:11;;;;;;;;;;;9.90;99.90;;;;;;4975796;28;20358;-76
2021/10/17 01:39:36;;;;;;;;;;;9.80;99.90;;;;;;4976041;28;19961;-72
2021/10/17 01:42:02;;;;;;;;;;;9.70;99.90;;;;;;4975727;28;19913;-73
2021/10/17 01:44:28;;;;;;;;;;;9.80;99.90;;;;;;4975711;28;19906;-76
2021/10/17 01:46:54;;;;;;;;;;;9.70;99.90;;;;;;4975715;28;19906;-74
2021/10/17 01:49:20;;;;;;;;;;;9.60;99.90;;;;;;4975634;28;20433;-70
2021/10/17 01:51:46;;;;;;;;;;;9.70;99.90;;;;;;4975634;28;19941;-71
2021/10/17 01:54:11;;;;;;;;;;;9.80;99.90;;;;;;4975584;28;19906;-73
2021/10/17 01:56:38;;;;;;;;;;;9.90;99.90;;;;;;4975771;28;19906;-75
2021/10/17 01:59:04;;;;;;;;;;;10.00;99.90;;;;;;4975644;28;19917;-72
2021/10/17 02:01:29;;;;;;;;;;;9.90;99.90;;;;;;4975453;28;19910;-72
2021/10/17 02:03:55;;;;;;;;;;;9.80;99.90;;;;;;4975716;28;19906;-73
2021/10/17 02:06:21;;;;;;;;;;;9.90;99.90;;;;;;4975379;28;20365;-72
2021/10/17 02:08:46;;;;;;;;;;;9.90;99.90;;;;;;4990247;28;19906;-73
2021/10/17 02:11:12;;;;;;;;;;;9.90;99.90;;;;;;4975275;28;20286;-73
2021/10/17 02:13:38;;;;;;;;;;;9.90;99.90;;;;;;4975837;28;19913;-76
2021/10/17 02:16:04;;;;;;;;;;;10.00;99.90;;;;;;4975255;28;20337;-72
2021/10/17 02:18:30;;;;;;;;;;;10.00;99.90;;;;;;4975691;28;20033;-71
2021/10/17 02:20:55;;;;;;;;;;;10.00;99.90;;;;;;4975164;28;20358;-71
2021/10/17 02:23:21;;;;;;;;;;;9.90;99.90;;;;;;4975219;28;19906;-77
2021/10/17 02:25:46;;;;;;;;;;;9.90;99.90;;;;;;4974300;28;19914;-71
2021/10/17 02:28:12;;;;;;;;;;;9.80;99.90;;;;;;4975315;28;20347;-73
2021/10/17 02:30:37;;;;;;;;;;;9.80;99.90;;;;;;4975018;28;20337;-73
2021/10/17 02:33:03;;;;;;;;;;;9.90;99.90;;;;;;4975557;28;20381;-73
2021/10/17 02:35:28;;;;;;;;;;;9.90;99.90;;;;;;4974991;28;20283;-72
2021/10/17 02:37:54;;;;;;;;;;;9.60;99.90;;;;;;4975126;28;19914;-75
2021/10/17 02:40:19;;;;;;;;;;;9.70;99.90;;;;;;4974917;28;19906;-77
2021/10/17 02:42:45;;;;;;;;;;;9.60;99.90;;;;;;4975452;28;19910;-74
2021/10/17 02:45:10;;;;;;;;;;;9.60;99.90;;;;;;4974903;28;20331;-74
2021/10/17 02:47:36;;;;;;;;;;;9.40;99.90;;;;;;4975128;28;19906;-71
2021/10/17 02:50:02;;;;;;;;;;;9.30;99.90;;;;;;4974807;28;19913;-76
2021/10/17 02:52:27;;;;;;;;;;;9.30;99.90;;;;;;4975112;28;19906;-72
2021/10/17 02:54:53;;;;;;;;;;;9.30;99.90;;;;;;4974816;28;20005;-74
2021/10/17 02:57:18;;;;;;;;;;;9.40;99.90;;;;;;4975002;28;20457;-75
2021/10/17 02:59:44;;;;;;;;;;;9.20;99.90;;;;;;4973448;28;19906;-72
2021/10/17 03:02:09;;;;;;;;;;;9.20;99.90;;;;;;4974961;28;19951;-73
2021/10/17 03:04:35;;;;;;;;;;;9.10;99.90;;;;;;4974719;28;19912;-71
2021/10/17 03:07:00;;;;;;;;;;;9.20;99.90;;;;;;4974686;28;20397;-73
2021/10/17 03:09:26;;;;;;;;;;;9.40;99.90;;;;;;4974931;28;19906;-75
2021/10/17 03:11:51;;;;;;;;;;;9.50;99.90;;;;;;4974880;28;19913;-74
2021/10/17 03:14:17;;;;;;;;;;;9.40;99.90;;;;;;4974643;28;19906;-73
2021/10/17 03:16:42;;;;;;;;;;;9.50;99.90;;;;;;4974887;28;20255;-70
2021/10/17 03:19:09;;;;;;;;;;;9.50;99.90;;;;;;4974480;28;20372;-70
2021/10/17 03:21:34;;;;;;;;;;;9.50;99.90;;;;;;4974819;28;20005;-72
2021/10/17 03:23:59;;;;;;;;;;;9.40;99.90;;;;;;4974462;28;19993;-75
2021/10/17 03:26:26;;;;;;;;;;;9.20;99.90;;;;;;4974255;28;19922;-73
2021/10/17 03:28:52;;;;;;;;;;;9.10;99.90;;;;;;4975041;28;19910;-73
2021/10/17 03:31:17;;;;;;;;;;;9.20;99.90;;;;;;4974474;28;19906;-74
2021/10/17 03:33:43;;;;;;;;;;;9.10;99.90;;;;;;4974707;28;19929;-71
2021/10/17 03:36:08;;;;;;;;;;;9.10;99.90;;;;;;4975077;28;19929;-74
2021/10/17 03:38:34;;;;;;;;;;;9.10;99.90;;;;;;4978206;28;19945;-71
2021/10/17 03:40:59;;;;;;;;;;;9.10;99.90;;;;;;4977990;28;19910;-72
2021/10/17 03:43:25;;;;;;;;;;;9.10;99.90;;;;;;4978185;28;19906;-73
2021/10/17 03:45:50;;;;;;;;;;;9.00;99.90;;;;;;4978190;28;20425;-73
2021/10/17 03:48:16;;;;;;;;;;;9.00;99.90;;;;;;4978399;28;19912;-72
2021/10/17 03:50:41;;;;;;;;;;;9.10;99.90;;;;;;4977817;28;19906;-71
2021/10/17 03:53:07;;;;;;;;;;;9.10;99.90;;;;;;4978366;28;19988;-71
2021/10/17 03:55:32;;;;;;;;;;;9.10;99.90;;;;;;4977720;28;19957;-72
2021/10/17 03:57:58;;;;;;;;;;;9.10;99.90;;;;;;4977898;28;19942;-74
2021/10/17 04:00:24;;;;;;;;;;;9.10;99.90;;;;;;4977609;28;19961;-71
2021/10/17 04:02:50;;;;;;;;;;;9.20;99.90;;;;;;4978196;28;20354;-72
2021/10/17 04:05:15;;;;;;;;;;;9.30;99.90;;;;;;4977585;28;19906;-75
2021/10/17 04:07:41;;;;;;;;;;;9.40;99.90;;;;;;4977542;28;19933;-75
2021/10/17 04:10:07;;;;;;;;;;;9.50;99.90;;;;;;4977548;28;20402;-75
2021/10/17 04:12:33;;;;;;;;;;;9.50;99.90;;;;;;4977479;28;20397;-72
2021/10/17 04:14:59;;;;;;;;;;;9.50;99.90;;;;;;4977708;28;19906;-75
2021/10/17 04:17:25;;;;;;;;;;;9.50;99.90;;;;;;4977299;28;19974;-74
2021/10/17 04:19:50;;;;;;;;;;;9.40;99.90;;;;;;4977334;28;19914;-77
2021/10/17 04:22:17;;;;;;;;;;;9.40;99.90;;;;;;4977447;28;19936;-74
2021/10/17 04:24:43;;;;;;;;;;;9.40;99.90;;;;;;4977272;28;20321;-71
2021/10/17 04:27:09;;;;;;;;;;;9.40;99.90;;;;;;4977006;28;20012;-73
2021/10/17 04:29:35;;;;;;;;;;;9.40;99.90;;;;;;4977488;28;19910;-76
2021/10/17 04:32:00;;;;;;;;;;;9.30;99.90;;;;;;4977086;28;19906;-72
2021/10/17 04:34:26;;;;;;;;;;;9.30;99.90;;;;;;4977270;28;20377;-75
2021/10/17 04:36:51;;;;;;;;;;;9.30;99.90;;;;;;4976974;28;19912;-75
2021/10/17 04:39:17;;;;;;;;;;;9.40;99.90;;;;;;4976839;28;19910;-72
2021/10/17 04:41:42;;;;;;;;;;;9.40;99.90;;;;;;4977502;28;19953;-70
2021/10/17 04:44:08;;;;;;;;;;;9.50;99.90;;;;;;4976888;28;19906;-76
2021/10/17 04:46:33;;;;;;;;;;;9.40;99.90;;;;;;4977399;28;19945;-75
2021/10/17 04:48:59;;;;;;;;;;;9.40;99.90;;;;;;4976239;28;19917;-71
2021/10/17 04:51:24;;;;;;;;;;;9.40;99.90;;;;;;4976734;28;20310;-74
2021/10/17 04:53:50;;;;;;;;;;;9.40;99.90;;;;;;4975428;28;19957;-73
2021/10/17 04:56:15;;;;;;;;;;;9.30;99.90;;;;;;4976920;28;19906;-72
2021/10/17 04:58:42;;;;;;;;;;;9.40;99.90;;;;;;4976491;28;20393;-73
2021/10/17 05:01:08;;;;;;;;;;;9.40;99.90;;;;;;4976538;28;19957;-73
2021/10/17 05:03:33;;;;;;;;;;;9.40;99.90;;;;;;4976513;28;19912;-73
2021/10/17 05:05:59;;;;;;;;;;;9.50;99.90;;;;;;4976737;28;19992;-71
2021/10/17 05:08:25;;;;;;;;;;;9.40;99.90;;;;;;4976383;28;20282;-74
2021/10/17 05:10:51;;;;;;;;;;;9.40;99.90;;;;;;4991070;28;19910;-73
2021/10/17 05:13:16;;;;;;;;;;;9.30;99.90;;;;;;4976579;28;19906;-76
2021/10/17 05:15:42;;;;;;;;;;;9.40;99.90;;;;;;4976215;28;20379;-73
2021/10/17 05:18:07;;;;;;;;;;;9.30;99.90;;;;;;4976404;28;19910;-76
2021/10/17 05:20:33;;;;;;;;;;;9.40;99.90;;;;;;4976495;28;19957;-72
2021/10/17 05:22:58;;;;;;;;;;;9.50;99.90;;;;;;4975986;28;19933;-76
2021/10/17 05:25:24;;;;;;;;;;;9.50;99.90;;;;;;4976303;28;20056;-71
2021/10/17 05:27:49;;;;;;;;;;;9.40;99.90;;;;;;4976264;28;20008;-72
2021/10/17 05:30:15;;;;;;;;;;;9.50;99.90;;;;;;4975956;28;19906;-70
2021/10/17 05:32:40;;;;;;;;;;;9.50;99.90;;;;;;4976230;28;20004;-74
2021/10/17 05:35:06;;;;;;;;;;;9.30;99.90;;;;;;4975866;28;20273;-71
2021/10/17 05:37:31;;;;;;;;;;;9.30;99.90;;;;;;4976357;28;19906;-71
2021/10/17 05:39:57;;;;;;;;;;;9.20;99.90;;;;;;4975816;28;20426;-71
2021/10/17 05:42:22;;;;;;;;;;;9.10;99.90;;;;;;4976036;28;19938;-73
2021/10/17 05:44:48;;;;;;;;;;;9.10;99.90;;;;;;4975751;28;19906;-74
2021/10/17 05:47:13;;;;;;;;;;;9.10;99.90;;;;;;4975977;28;19913;-71
2021/10/17 05:49:39;;;;;;;;;;;9.20;99.90;;;;;;4975662;28;19910;-72
2021/10/17 05:52:05;;;;;;;;;;;9.30;99.90;;;;;;4975644;28;19909;-75
2021/10/17 05:54:30;;;;;;;;;;;9.40;99.90;;;;;;4975572;28;20401;-70
2021/10/17 05:56:56;;;;;;;;;;;9.40;99.90;;;;;;4975856;28;20311;-71
2021/10/17 05:59:21;;;;;;;;;;;9.40;99.90;;;;;;4975377;28;19917;-73
2021/10/17 06:01:47;;;;;;;;;;;9.40;99.90;;;;;;4976005;28;19913;-72
2021/10/17 06:04:12;;;;;;;;;;;9.50;99.90;;;;;;4975428;28;19905;-74
2021/10/17 06:06:41;;;;;;;;;;;9.40;99.90;;;;;;4975376;28;19906;-75
2021/10/17 06:09:07;;;;;;;;;;;9.40;99.90;;;;;;4975898;28;19913;-72
2021/10/17 06:11:33;;;;;;;;;;;9.30;99.90;;;;;;4975349;28;19906;-72
2021/10/17 06:13:59;;;;;;;;;;;9.30;99.90;;;;;;4975275;28;20016;-74
2021/10/17 06:16:24;;;;;;;;;;;9.30;99.90;;;;;;4975256;28;20409;-70
2021/10/17 06:18:50;;;;;;;;;;;9.20;99.90;;;;;;4975128;28;19916;-75
2021/10/17 06:21:15;;;;;;;;;;;9.20;99.90;;;;;;4975386;28;19913;-72
2021/10/17 06:23:41;;;;;;;;;;;9.20;99.90;;;;;;4975065;28;20366;-73
2021/10/17 06:26:06;;;;;;;;;;;9.20;99.90;;;;;;4975033;28;19945;-74
2021/10/17 06:28:32;;;;;;;;;;;9.20;99.90;;;;;;4975085;28;19906;-72
2021/10/17 06:30:57;;;;;;;;;;;9.30;99.90;;;;;;4975287;28;19906;-71
2021/10/17 06:33:22;;;;;;;;;;;9.30;99.90;;;;;;4975009;28;20282;-71
2021/10/17 06:35:48;;;;;;;;;;;9.30;99.90;;;;;;4975031;28;19941;-73
2021/10/17 06:38:13;;;;;;;;;;;9.20;99.90;;;;;;4975151;28;19910;-71
2021/10/17 06:40:39;;;;;;;;;;;9.30;99.90;;;;;;4974940;28;19975;-71
2021/10/17 06:43:05;;;;;;;;;;;9.30;99.90;;;;;;4975470;28;19910;-71
2021/10/17 06:45:30;;;;;;;;;;;9.30;99.90;;;;;;4975241;28;19910;-72
2021/10/17 06:47:56;;;;;;;;;;;9.40;99.90;;;;;;4975398;28;19938;-72
2021/10/17 06:50:21;;;;;;;;;;;9.30;99.90;;;;;;4974873;28;19910;-75
2021/10/17 06:52:47;;;;;;;;;;;9.30;99.90;;;;;;4974906;28;19998;-76
2021/10/17 06:55:13;;;;;;;;;;;9.30;99.90;;;;;;4974850;28;20004;-74
2021/10/17 06:57:38;;;;;;;;;;;9.30;99.90;;;;;;4975290;28;19910;-72
2021/10/17 07:00:05;;;;;;;;;;;9.30;99.90;;;;;;4975026;28;19906;-72
2021/10/17 07:02:30;;;;;;;;;;;9.40;99.90;;;;;;4974783;28;19913;-72
2021/10/17 07:04:56;;;;;;;;;;;9.30;99.90;;;;;;4974989;28;19906;-74
2021/10/17 07:07:21;;;;;;;;;;;9.40;99.90;;;;;;4974716;28;19906;-70
2021/10/17 07:09:46;;;;;;;;;;;9.50;99.90;;;;;;4974702;28;20286;-74
2021/10/17 07:12:12;;;;;;;;;;;9.40;99.90;;;;;;4977254;28;20401;-71
2021/10/17 07:14:38;;;;;;;;;;;9.40;99.90;;;;;;4978435;28;19906;-72
2021/10/17 07:17:03;;;;;;;;;;;9.30;99.90;;;;;;4993388;28;19921;-69
2021/10/17 07:19:29;;;;;;;;;;;9.40;99.90;;;;;;4978338;28;20355;-73
2021/10/17 07:21:54;;;;;;;;;;;9.40;99.90;;;;;;4978567;28;20382;-71
2021/10/17 07:24:20;;;;;;;;;;;9.50;99.90;;;;;;4978341;28;19906;-72
2021/10/17 07:26:45;;;;;;;;;;;9.60;99.90;;;;;;4977974;28;19925;-70
2021/10/17 07:29:11;;;;;;;;;;;9.50;99.90;;;;;;4978224;28;19993;-73
2021/10/17 07:31:36;;;;;;;;;;;9.50;99.90;;;;;;4978463;28;20355;-73
2021/10/17 07:34:02;;;;;;;;;;;9.40;99.90;;;;;;4978169;28;19913;-73
2021/10/17 07:36:27;;;;;;;;;;;9.50;99.90;;;;;;4978406;28;19993;-75
2021/10/17 07:38:53;;;;;;;;;;;9.60;99.90;;;;;;4978010;28;20277;-71
2021/10/17 07:41:20;;;;;;;;;;;9.60;99.90;;;;;;4978033;28;19906;-72
2021/10/17 07:43:46;;;;;;;;;;;9.60;99.90;;;;;;4978262;28;20428;-71
2021/10/17 07:46:11;;;;;;;;;;;9.80;99.90;;;;;;4978214;28;19906;-71
2021/10/17 07:48:38;;;;;;;;;;;9.90;99.90;;;;;;4978170;28;19910;-74
2021/10/17 07:51:04;;;;;;;;;;;9.90;99.90;;;;;;4977846;28;19906;-72
2021/10/17 07:53:30;;;;;;;;;;;10.10;99.90;;;;;;4978059;28;20385;-73
2021/10/17 07:55:56;;;;;;;;;;;10.00;99.90;;;;;;4977837;28;19910;-74
2021/10/17 07:58:22;;;;;;;;;;;10.00;99.90;;;;;;4977975;28;19917;-73
2021/10/17 08:00:47;;;;;;;;;;;9.90;99.90;;;;;;4977684;28;19906;-70
2021/10/17 08:03:13;;;;;;;;;;;9.90;99.90;;;;;;4977896;28;19921;-72
2021/10/17 08:05:38;;;;;;;;;;;10.00;99.90;;;;;;4977616;28;19964;-73
2021/10/17 08:08:04;;;;;;;;;;;10.00;99.90;;;;;;4977790;28;19948;-74
2021/10/17 08:10:29;;;;;;;;;;;10.10;99.90;;;;;;4977512;28;20325;-72
2021/10/17 08:12:55;;;;;;;;;;;10.10;99.90;;;;;;4977433;28;19906;-72
2021/10/17 08:15:21;;;;;;;;;;;10.10;99.90;;;;;;4977659;28;19906;-73
2021/10/17 08:17:46;;;;;;;;;;;10.10;99.90;;;;;;4977288;28;20351;-75
2021/10/17 08:20:12;;;;;;;;;;;10.30;99.90;;;;;;4977602;28;19906;-74
2021/10/17 08:22:37;;;;;;;;;;;10.50;99.90;;;;;;4976468;28;19906;-75
2021/10/17 08:25:04;;;;;;;;;;;10.60;99.90;;;;;;4977127;28;19906;-72
2021/10/17 08:27:29;;;;;;;;;;;10.70;99.90;;;;;;4977754;28;19906;-72
2021/10/17 08:29:55;;;;;;;;;;;11.00;99.90;;;;;;4977121;28;19912;-73
2021/10/17 08:32:21;;;;;;;;;;;11.20;99.90;;;;;;4977113;28;20004;-75
2021/10/17 08:34:46;;;;;;;;;;;11.40;99.90;;;;;;4977363;28;19975;-74
2021/10/17 08:37:12;;;;;;;;;;;11.50;99.90;;;;;;4977020;28;19921;-73
2021/10/17 08:39:38;;;;;;;;;;;11.50;99.90;;;;;;4976900;28;19910;-73
2021/10/17 08:42:04;;;;;;;;;;;11.50;99.90;;;;;;4977208;28;20358;-74
2021/10/17 08:44:29;;;;;;;;;;;11.50;99.90;;;;;;4976903;28;19916;-75
2021/10/17 08:46:55;;;;;;;;;;;11.50;99.90;;;;;;4977097;28;19906;-74
2021/10/17 08:49:21;;;;;;;;;;;11.70;99.90;;;;;;4977088;28;19956;-71
2021/10/17 08:51:47;;;;;;;;;;;11.80;99.90;;;;;;4976813;28;20318;-74
2021/10/17 08:54:12;;;;;;;;;;;11.70;99.90;;;;;;4977267;28;19933;-76
2021/10/17 08:56:38;;;;;;;;;;;11.60;99.90;;;;;;4976683;28;20350;-72
2021/10/17 08:59:03;;;;;;;;;;;11.60;99.90;;;;;;4976501;28;19916;-74
2021/10/17 09:01:36;;;;;;;;;;;11.60;99.90;;;;;;4976819;28;19910;-71
2021/10/17 09:04:03;;;;;;;;;;;11.60;99.90;;;;;;4976769;28;19906;-74
2021/10/17 09:06:32;;;;;;;;;;;11.60;99.90;;;;;;4976744;28;19906;-73
2021/10/17 09:09:09;;;;;;;;;;;11.60;99.90;;;;;;4976437;28;19906;-73
2021/10/17 09:11:37;;;;;;;;;;;11.80;99.90;;;;;;4976693;28;20274;-75
2021/10/17 09:14:03;;;;;;;;;;;12.00;99.90;;;;;;4976340;28;19906;-75
2021/10/17 09:16:29;;;;;;;;;;;12.10;99.90;;;;;;4976844;28;20287;-73
2021/10/17 09:19:24;;;;;;;;;;;12.10;99.90;;;;;;4976204;28;19933;-71
2021/10/17 09:22:09;;;;;;;;;;;12.10;99.90;;;;;;4967433;28;19917;-73
2021/10/17 09:24:42;;;;;;;;;;;12.40;99.90;;;;;;4976437;28;19906;-72
2021/10/17 09:27:09;;;;;;;;;;;12.40;99.90;;;;;;4975707;28;19925;-71
2021/10/17 09:29:35;;;;;;;;;;;12.40;99.90;;;;;;4976390;28;19945;-71
2021/10/17 09:32:01;;;;;;;;;;;12.50;99.90;;;;;;4976311;28;19952;-73
2021/10/17 09:34:27;;;;;;;;;;;12.70;99.90;;;;;;4990595;28;19906;-71
2021/10/17 09:37:05;;;;;;;;;;;12.80;99.90;;;;;;4975924;28;19906;-74
2021/10/17 09:39:36;;;;;;;;;;;12.90;99.90;;;;;;4976041;28;19917;-77
2021/10/17 09:42:01;;;;;;;;;;;12.90;99.90;;;;;;4975897;28;19906;-75
2021/10/17 09:44:40;;;;;;;;;;;12.80;99.90;;;;;;4975758;28;19912;-73
2021/10/17 09:47:05;;;;;;;;;;;12.70;99.90;;;;;;4975748;28;19909;-75
2021/10/17 09:49:31;;;;;;;;;;;12.60;99.90;;;;;;4975970;28;19906;-73
2021/10/17 09:52:08;;;;;;;;;;;12.60;99.90;;;;;;4975631;28;20264;-75
2021/10/17 09:54:34;;;;;;;;;;;12.60;99.90;;;;;;4976021;28;19913;-74
2021/10/17 09:57:04;;;;;;;;;;;12.70;99.90;;;;;;4975539;28;20282;-75
2021/10/17 09:59:29;;;;;;;;;;;12.80;99.90;;;;;;4976011;28;19914;-72
2021/10/17 10:01:55;;;;;;;;;;;13.00;99.90;;;;;;4975427;28;20358;-71
2021/10/17 10:04:21;;;;;;;;;;;13.20;99.90;;;;;;4975635;28;19906;-74
2021/10/17 10:06:46;;;;;;;;;;;13.20;99.90;;;;;;4975377;28;19992;-71
2021/10/17 10:09:12;;;;;;;;;;;13.40;99.90;;;;;;4975620;28;20000;-73
2021/10/17 10:11:38;;;;;;;;;;;13.40;99.90;;;;;;4975557;28;19906;-74
2021/10/17 10:14:04;;;;;;;;;;;13.50;99.90;;;;;;4973980;28;19913;-72
2021/10/17 10:16:30;;;;;;;;;;;13.50;99.90;;;;;;4975233;28;19957;-73
2021/10/17 10:19:00;;;;;;;;;;;13.70;99.90;;;;;;4975462;28;19914;-73
2021/10/17 10:21:25;;;;;;;;;;;13.90;99.90;;;;;;4975175;28;20279;-76
2021/10/17 10:23:52;;;;;;;;;;;14.10;99.90;;;;;;4975123;28;19906;-72
2021/10/17 10:26:28;;;;;;;;;;;14.20;99.90;;;;;;4974968;28;19918;-71
2021/10/17 10:28:54;;;;;;;;;;;14.40;99.90;;;;;;4975101;28;19910;-70
2021/10/17 10:31:38;;;;;;;;;;;14.40;99.90;;;;;;4974716;28;19978;-72
2021/10/17 10:34:04;;;;;;;;;;;14.40;99.90;;;;;;4973947;28;19960;-73
2021/10/17 10:36:45;;;;;;;;;;;14.30;99.90;;;;;;4974213;28;19910;-75
2021/10/17 10:39:16;;;;;;;;;;;14.50;99.90;;;;;;4974154;28;19949;-73
2021/10/17 10:41:45;;;;;;;;;;;14.60;99.90;;;;;;4974108;28;19906;-74
2021/10/17 10:44:15;;;;;;;;;;;14.70;99.90;;;;;;4974285;28;19957;-73
2021/10/17 10:46:41;;;;;;;;;;;14.80;99.90;;;;;;4974205;28;19912;-73
2021/10/17 10:49:07;;;;;;;;;;;14.80;99.90;;;;;;4975484;28;19961;-71
2021/10/17 10:51:41;;;;;;;;;;;14.90;99.90;;;;;;4974870;28;19906;-72
2021/10/17 10:54:33;;;;;;;;;;;14.90;99.90;;;;;;4975090;28;19910;-77
2021/10/17 10:56:58;;;;;;;;;;;15.10;99.90;;;;;;4972971;28;19938;-71
2021/10/17 10:59:44;;;;;;;;;;;15.10;99.90;;;;;;4974707;28;20389;-74
2021/10/17 11:02:13;;;;;;;;;;;15.10;99.90;;;;;;4975211;28;19921;-77
2021/10/17 11:04:41;;;;;;;;;;;14.90;99.90;;;;;;4989649;28;19961;-76
2021/10/17 11:07:19;;;;;;;;;;;14.90;99.90;;;;;;4973460;28;19906;-71
2021/10/17 11:09:45;;;;;;;;;;;14.90;99.90;;;;;;4974717;28;19906;-74
2021/10/17 11:12:11;;;;;;;;;;;14.90;99.90;;;;;;4974964;28;19906;-71
2021/10/17 11:14:36;;;;;;;;;;;14.90;99.90;;;;;;4974711;28;19960;-74
2021/10/17 11:17:08;;;;;;;;;;;15.00;99.90;;;;;;4975195;28;19910;-72
2021/10/17 11:19:34;;;;;;;;;;;15.00;99.90;;;;;;4974643;28;19909;-73
2021/10/17 11:22:00;;;;;;;;;;;15.00;99.90;;;;;;4974802;28;20392;-71
2021/10/17 11:24:27;;;;;;;;;;;15.00;99.90;;;;;;4974549;28;19972;-72
2021/10/17 11:27:11;;;;;;;;;;;15.00;99.90;;;;;;4974252;28;19960;-71
2021/10/17 11:29:38;;;;;;;;;;;15.00;99.90;;;;;;4975131;28;19913;-73
2021/10/17 11:32:17;;;;;;;;;;;15.00;99.90;;;;;;4974552;28;19954;-76
2021/10/17 11:35:02;;;;;;;;;;;15.10;99.90;;;;;;4975120;28;19961;-71
2021/10/17 11:37:29;;;;;;;;;;;15.00;99.90;;;;;;4974103;28;19906;-73
2021/10/17 11:39:55;;;;;;;;;;;15.10;99.90;;;;;;4974487;28;19933;-72
2021/10/17 11:42:22;;;;;;;;;;;15.10;99.90;;;;;;4975024;28;20347;-75
2021/10/17 11:44:47;;;;;;;;;;;15.10;99.90;;;;;;4974519;28;19914;-74
2021/10/17 11:47:15;;;;;;;;;;;15.20;99.90;;;;;;4975049;28;19906;-72
2021/10/17 11:49:40;;;;;;;;;;;15.20;99.90;;;;;;4974743;28;20420;-74
2021/10/17 11:52:10;;;;;;;;;;;15.20;99.90;;;;;;4974626;28;20000;-75
2021/10/17 11:54:42;;;;;;;;;;;15.20;99.90;;;;;;4974406;28;19906;-71
2021/10/17 11:57:08;;;;;;;;;;;15.30;99.90;;;;;;4975227;28;19910;-72
2021/10/17 11:59:33;;;;;;;;;;;15.30;99.90;;;;;;4978152;28;19910;-73
2021/10/17 12:01:59;;;;;;;;;;;15.30;99.90;;;;;;4978007;28;19910;-73
2021/10/17 12:04:41;;;;;;;;;;;15.40;99.90;;;;;;4977734;28;19910;-72
2021/10/17 12:07:06;;;;;;;;;;;15.30;99.90;;;;;;4977900;28;19913;-73
2021/10/17 12:09:33;;;;;;;;;;;15.30;99.90;;;;;;4977642;28;19953;-75
2021/10/17 12:11:59;;;;;;;;;;;15.30;99.90;;;;;;4978133;28;19906;-74
2021/10/17 12:14:25;;;;;;;;;;;15.40;99.90;;;;;;4977819;28;20421;-70
2021/10/17 12:16:54;;;;;;;;;;;15.40;99.90;;;;;;4977518;28;19996;-73
2021/10/17 12:19:24;;;;;;;;;;;15.40;99.90;;;;;;4977374;28;19977;-72
2021/10/17 12:21:49;;;;;;;;;;;15.30;99.90;;;;;;4977309;28;19912;-73
2021/10/17 12:24:15;;;;;;;;;;;15.30;99.90;;;;;;4977900;28;19906;-73
2021/10/17 12:26:51;;;;;;;;;;;15.50;99.90;;;;;;4976960;28;19918;-76
2021/10/17 12:29:17;;;;;;;;;;;15.50;99.90;;;;;;4977213;28;19906;-75
2021/10/17 12:31:44;;;;;;;;;;;15.50;99.90;;;;;;4977468;28;19913;-73
2021/10/17 12:34:10;;;;;;;;;;;15.60;99.90;;;;;;4977160;28;19910;-74
2021/10/17 12:36:37;;;;;;;;;;;15.60;99.90;;;;;;4977735;28;20375;-73
2021/10/17 12:39:03;;;;;;;;;;;15.60;99.90;;;;;;4977064;28;19910;-74
2021/10/17 12:41:29;;;;;;;;;;;15.50;99.90;;;;;;4977050;28;20371;-77
2021/10/17 12:43:58;;;;;;;;;;;15.60;99.90;;;;;;4977543;28;19913;-71
2021/10/17 12:46:24;;;;;;;;;;;15.70;99.90;;;;;;4977004;28;19906;-74
2021/10/17 12:48:50;;;;;;;;;;;15.70;99.90;;;;;;4977399;28;19917;-74
2021/10/17 12:51:32;;;;;;;;;;;15.70;99.90;;;;;;4976973;28;19906;-71
2021/10/17 12:54:08;;;;;;;;;;;15.90;99.90;;;;;;4977243;28;19906;-74
2021/10/17 12:56:34;;;;;;;;;;;15.90;99.90;;;;;;4976918;28;19913;-72
2021/10/17 12:59:10;;;;;;;;;;;15.90;99.90;;;;;;4976867;28;20017;-73
2021/10/17 13:01:36;;;;;;;;;;;16.20;99.90;;;;;;4977016;28;19992;-73
2021/10/17 13:04:12;;;;;;;;;;;16.40;99.90;;;;;;4976649;28;20354;-72
2021/10/17 13:06:50;;;;;;;;;;;16.40;99.90;;;;;;4976859;28;19957;-74
2021/10/17 13:09:16;;;;;;;;;;;16.40;99.90;;;;;;4976268;28;19989;-75
2021/10/17 13:11:41;;;;;;;;;;;16.40;99.90;;;;;;4976567;28;19953;-73
2021/10/17 13:14:10;;;;;;;;;;;16.40;99.90;;;;;;4976613;28;19910;-71
2021/10/17 13:16:38;;;;;;;;;;;16.50;99.90;;;;;;4976760;28;19960;-73
2021/10/17 13:19:03;;;;;;;;;;;16.60;99.90;;;;;;4976353;28;19933;-73
2021/10/17 13:21:29;;;;;;;;;;;16.50;99.90;;;;;;4976273;28;20490;-73
2021/10/17 13:23:54;;;;;;;;;;;16.50;99.90;;;;;;4976287;28;19910;-73
2021/10/17 13:26:20;;;;;;;;;;;16.50;99.90;;;;;;4976165;28;19949;-75
2021/10/17 13:28:45;;;;;;;;;;;16.40;99.90;;;;;;4976521;28;20286;-74
2021/10/17 13:31:11;;;;;;;;;;;16.40;99.90;;;;;;4976181;28;19906;-72
2021/10/17 13:33:36;;;;;;;;;;;16.40;99.90;;;;;;4976365;28;20004;-71
2021/10/17 13:36:02;;;;;;;;;;;16.50;99.90;;;;;;4976139;28;19996;-71
2021/10/17 13:38:28;;;;;;;;;;;16.50;99.90;;;;;;4976551;28;19910;-71
2021/10/17 13:40:54;;;;;;;;;;;16.30;99.90;;;;;;4976346;28;19906;-73
2021/10/17 13:43:19;;;;;;;;;;;16.30;99.90;;;;;;4975979;28;20255;-74
2021/10/17 13:45:44;;;;;;;;;;;16.40;99.90;;;;;;4976260;28;19953;-71
2021/10/17 13:48:10;;;;;;;;;;;16.30;99.90;;;;;;4975767;28;19945;-77
2021/10/17 13:50:36;;;;;;;;;;;16.40;99.90;;;;;;4976573;28;19906;-76
2021/10/17 13:53:01;;;;;;;;;;;16.60;99.90;;;;;;4976030;28;19974;-71
2021/10/17 13:55:27;;;;;;;;;;;16.60;99.90;;;;;;4975964;28;20004;-72
2021/10/17 13:57:52;;;;;;;;;;;16.70;99.90;;;;;;4975519;28;19913;-74
2021/10/17 14:00:27;;;;;;;;;;;16.80;99.90;;;;;;4975726;28;19953;-74
2021/10/17 14:02:54;;;;;;;;;;;16.90;99.90;;;;;;4974112;28;19937;-76
2021/10/17 14:05:20;;;;;;;;;;;16.90;99.90;;;;;;4975979;28;20374;-75
2021/10/17 14:07:45;;;;;;;;;;;16.90;99.90;;;;;;4975437;28;19906;-74
2021/10/17 14:10:11;;;;;;;;;;;16.80;99.90;;;;;;4975644;28;20247;-71
2021/10/17 14:12:37;;;;;;;;;;;16.90;99.90;;;;;;4975482;28;20315;-75
2021/10/17 14:15:07;;;;;;;;;;;16.90;99.90;;;;;;4975525;28;19907;-73
2021/10/17 14:17:32;;;;;;;;;;;17.00;99.90;;;;;;4975222;28;20263;-75
2021/10/17 14:19:58;;;;;;;;;;;17.00;99.90;;;;;;4974753;28;20001;-77
2021/10/17 14:22:26;;;;;;;;;;;17.10;99.90;;;;;;4974752;28;19993;-72